sensor_id;sensor_type;location;lat;lon;timestamp;pressure;altitude;pressure_sealevel;temperature;humidity
64019;BME280;66942;52.138;5.216;2023-11-19T00:01:07;100750.0;;;28.3;35.36
64019;BME280;66942;52.138;5.216;2023-11-19T00:02:43;100748.0;;;28.24;35.64
64019;BME280;66942;52.138;5.216;2023-11-19T00:04:19;100745.0;;;28.04;35.93
64019;BME280;66942;52.138;5.216;2023-11-19T00:07:32;100733.0;;;28.26;35.51
64019;BME280;66942;52.138;5.216;2023-11-19T00:09:08;100731.0;;;28.49;35.17
64019;BME280;66942;52.138;5.216;2023-11-19T00:10:44;100739.0;;;28.36;35.37
64019;BME280;66942;52.138;5.216;2023-11-19T00:13:56;100735.0;;;28.48;35.06
64019;BME280;66942;52.138;5.216;2023-11-19T00:15:32;100734.0;;;28.52;34.9
64019;BME280;66942;52.138;5.216;2023-11-19T00:17:08;100738.0;;;28.47;34.96
64019;BME280;66942;52.138;5.216;2023-11-19T00:20:20;100735.0;;;28.47;35.08
64019;BME280;66942;52.138;5.216;2023-11-19T00:21:57;100732.0;;;27.94;35.89
64019;BME280;66942;52.138;5.216;2023-11-19T00:23:33;100727.0;;;28.18;35.54
64019;BME280;66942;52.138;5.216;2023-11-19T00:25:09;100724.0;;;28.3;35.24
64019;BME280;66942;52.138;5.216;2023-11-19T00:28:22;100717.0;;;28.48;34.96
64019;BME280;66942;52.138;5.216;2023-11-19T00:29:59;100731.0;;;28.45;34.92
64019;BME280;66942;52.138;5.216;2023-11-19T00:31:36;100724.0;;;28.7;34.56
64019;BME280;66942;52.138;5.216;2023-11-19T00:34:48;100721.0;;;28.41;35.06
64019;BME280;66942;52.138;5.216;2023-11-19T00:36:25;100717.0;;;28.4;34.96
64019;BME280;66942;52.138;5.216;2023-11-19T00:38:01;100719.0;;;28.41;35.08
64019;BME280;66942;52.138;5.216;2023-11-19T00:41:13;100711.0;;;28.38;35.06
64019;BME280;66942;52.138;5.216;2023-11-19T00:42:51;100709.0;;;28.49;34.94
64019;BME280;66942;52.138;5.216;2023-11-19T00:44:27;100713.0;;;28.45;35.06
64019;BME280;66942;52.138;5.216;2023-11-19T00:46:07;100712.0;;;28.19;35.44
64019;BME280;66942;52.138;5.216;2023-11-19T00:49:19;100705.0;;;28.62;34.81
64019;BME280;66942;52.138;5.216;2023-11-19T00:50:55;100697.0;;;28.5;34.99
64019;BME280;66942;52.138;5.216;2023-11-19T00:52:32;100705.0;;;28.55;34.79
64019;BME280;66942;52.138;5.216;2023-11-19T00:55:44;100707.0;;;28.38;34.85
64019;BME280;66942;52.138;5.216;2023-11-19T00:57:21;100699.0;;;28.11;35.21
64019;BME280;66942;52.138;5.216;2023-11-19T00:58:57;100706.0;;;28.66;34.68
64019;BME280;66942;52.138;5.216;2023-11-19T01:02:09;100709.0;;;28.52;34.72
64019;BME280;66942;52.138;5.216;2023-11-19T01:03:45;100716.0;;;28.75;34.46
64019;BME280;66942;52.138;5.216;2023-11-19T01:05:21;100708.0;;;28.37;34.9
64019;BME280;66942;52.138;5.216;2023-11-19T01:08:34;100705.0;;;28.54;34.65
64019;BME280;66942;52.138;5.216;2023-11-19T01:10:10;100711.0;;;28.24;35.03
64019;BME280;66942;52.138;5.216;2023-11-19T01:11:46;100708.0;;;28.39;34.85
64019;BME280;66942;52.138;5.216;2023-11-19T01:13:22;100706.0;;;28.09;35.21
64019;BME280;66942;52.138;5.216;2023-11-19T01:16:34;100695.0;;;28.15;34.94
64019;BME280;66942;52.138;5.216;2023-11-19T01:18:10;100692.0;;;28.35;34.92
64019;BME280;66942;52.138;5.216;2023-11-19T01:19:47;100688.0;;;28.52;34.6
64019;BME280;66942;52.138;5.216;2023-11-19T01:23:00;100686.0;;;28.38;34.89
64019;BME280;66942;52.138;5.216;2023-11-19T01:24:36;100681.0;;;28.37;34.87
64019;BME280;66942;52.138;5.216;2023-11-19T01:26:13;100674.0;;;27.97;35.39
64019;BME280;66942;52.138;5.216;2023-11-19T01:29:25;100676.0;;;28.26;34.94
64019;BME280;66942;52.138;5.216;2023-11-19T01:31:01;100680.0;;;28.22;34.92
64019;BME280;66942;52.138;5.216;2023-11-19T01:32:37;100684.0;;;28.51;34.56
64019;BME280;66942;52.138;5.216;2023-11-19T01:34:13;100687.0;;;28.48;34.56
64019;BME280;66942;52.138;5.216;2023-11-19T01:37:26;100680.0;;;28.2;35.1
64019;BME280;66942;52.138;5.216;2023-11-19T01:39:03;100684.0;;;28.34;34.74
64019;BME280;66942;52.138;5.216;2023-11-19T01:40:38;100680.0;;;28.43;34.62
64019;BME280;66942;52.138;5.216;2023-11-19T01:43:51;100685.0;;;28.13;34.92
64019;BME280;66942;52.138;5.216;2023-11-19T01:45:29;100680.0;;;28.29;34.61
64019;BME280;66942;52.138;5.216;2023-11-19T01:47:06;100678.0;;;28.14;34.86
64019;BME280;66942;52.138;5.216;2023-11-19T01:50:22;100678.0;;;28.2;34.78
64019;BME280;66942;52.138;5.216;2023-11-19T01:52:00;100675.0;;;28.24;34.74
64019;BME280;66942;52.138;5.216;2023-11-19T01:53:37;100676.0;;;28.08;34.89
64019;BME280;66942;52.138;5.216;2023-11-19T01:55:15;100675.0;;;28.11;34.57
64019;BME280;66942;52.138;5.216;2023-11-19T01:58:30;100681.0;;;28.23;34.42
64019;BME280;66942;52.138;5.216;2023-11-19T02:00:08;100682.0;;;28.02;34.54
64019;BME280;66942;52.138;5.216;2023-11-19T02:01:46;100687.0;;;28.05;34.51
64019;BME280;66942;52.138;5.216;2023-11-19T02:05:00;100680.0;;;27.79;34.87
64019;BME280;66942;52.138;5.216;2023-11-19T02:06:38;100680.0;;;27.9;34.53
64019;BME280;66942;52.138;5.216;2023-11-19T02:08:15;100676.0;;;27.91;34.5
64019;BME280;66942;52.138;5.216;2023-11-19T02:09:51;100669.0;;;27.93;34.35
64019;BME280;66942;52.138;5.216;2023-11-19T02:13:05;100667.0;;;27.55;35.0
64019;BME280;66942;52.138;5.216;2023-11-19T02:14:41;100675.0;;;27.84;34.43
64019;BME280;66942;52.138;5.216;2023-11-19T02:16:17;100673.0;;;27.75;34.47
64019;BME280;66942;52.138;5.216;2023-11-19T02:19:29;100682.0;;;27.73;34.36
64019;BME280;66942;52.138;5.216;2023-11-19T02:21:06;100680.0;;;27.64;34.56
64019;BME280;66942;52.138;5.216;2023-11-19T02:22:41;100690.0;;;27.56;34.49
64019;BME280;66942;52.138;5.216;2023-11-19T02:26:03;100694.0;;;27.51;34.53
64019;BME280;66942;52.138;5.216;2023-11-19T02:27:48;100701.0;;;27.47;34.64
64019;BME280;66942;52.138;5.216;2023-11-19T02:29:28;100696.0;;;27.3;34.82
64019;BME280;66942;52.138;5.216;2023-11-19T02:31:04;100693.0;;;27.28;34.81
64019;BME280;66942;52.138;5.216;2023-11-19T02:34:18;100697.0;;;27.4;34.6
64019;BME280;66942;52.138;5.216;2023-11-19T02:35:54;100698.0;;;27.42;34.56
64019;BME280;66942;52.138;5.216;2023-11-19T02:37:31;100697.0;;;27.51;34.46
64019;BME280;66942;52.138;5.216;2023-11-19T02:39:07;100696.0;;;27.39;34.67
64019;BME280;66942;52.138;5.216;2023-11-19T02:42:21;100690.0;;;27.52;34.46
64019;BME280;66942;52.138;5.216;2023-11-19T02:43:57;100691.0;;;27.35;34.76
64019;BME280;66942;52.138;5.216;2023-11-19T02:45:34;100688.0;;;27.37;34.5
64019;BME280;66942;52.138;5.216;2023-11-19T02:48:46;100687.0;;;26.36;35.67
64019;BME280;66942;52.138;5.216;2023-11-19T02:50:24;100686.0;;;26.83;35.39
64019;BME280;66942;52.138;5.216;2023-11-19T02:52:01;100685.0;;;26.82;35.18
64019;BME280;66942;52.138;5.216;2023-11-19T02:55:14;100680.0;;;27.46;34.31
64019;BME280;66942;52.138;5.216;2023-11-19T02:56:51;100690.0;;;27.21;34.61
64019;BME280;66942;52.138;5.216;2023-11-19T02:58:27;100690.0;;;27.3;34.39
64019;BME280;66942;52.138;5.216;2023-11-19T03:00:05;100681.0;;;26.93;34.99
64019;BME280;66942;52.138;5.216;2023-11-19T03:03:19;100672.0;;;26.87;34.81
64019;BME280;66942;52.138;5.216;2023-11-19T03:04:55;100673.0;;;26.81;34.96
64019;BME280;66942;52.138;5.216;2023-11-19T03:06:32;100674.0;;;26.81;34.69
64019;BME280;66942;52.138;5.216;2023-11-19T03:09:44;100678.0;;;27.14;34.11
64019;BME280;66942;52.138;5.216;2023-11-19T03:11:20;100685.0;;;26.75;34.67
64019;BME280;66942;52.138;5.216;2023-11-19T03:12:57;100673.0;;;27.04;34.24
64019;BME280;66942;52.138;5.216;2023-11-19T03:16:09;100680.0;;;26.81;34.49
64019;BME280;66942;52.138;5.216;2023-11-19T03:17:45;100684.0;;;27.05;34.06
64019;BME280;66942;52.138;5.216;2023-11-19T03:19:21;100687.0;;;26.85;34.37
64019;BME280;66942;52.138;5.216;2023-11-19T03:20:59;100689.0;;;26.89;34.21
64019;BME280;66942;52.138;5.216;2023-11-19T03:24:13;100699.0;;;26.77;34.24
64019;BME280;66942;52.138;5.216;2023-11-19T03:25:49;100691.0;;;26.85;34.17
64019;BME280;66942;52.138;5.216;2023-11-19T03:27:26;100684.0;;;26.65;34.49
64019;BME280;66942;52.138;5.216;2023-11-19T03:30:38;100680.0;;;26.57;34.49
64019;BME280;66942;52.138;5.216;2023-11-19T03:32:14;100674.0;;;26.68;34.46
64019;BME280;66942;52.138;5.216;2023-11-19T03:33:50;100671.0;;;26.43;34.6
64019;BME280;66942;52.138;5.216;2023-11-19T03:37:03;100671.0;;;26.65;34.42
64019;BME280;66942;52.138;5.216;2023-11-19T03:38:39;100658.0;;;26.63;34.39
64019;BME280;66942;52.138;5.216;2023-11-19T03:40:16;100658.0;;;26.47;34.54
64019;BME280;66942;52.138;5.216;2023-11-19T03:41:52;100655.0;;;26.42;34.78
64019;BME280;66942;52.138;5.216;2023-11-19T03:45:07;100649.0;;;26.42;34.65
64019;BME280;66942;52.138;5.216;2023-11-19T03:46:44;100661.0;;;26.5;34.46
64019;BME280;66942;52.138;5.216;2023-11-19T03:48:20;100667.0;;;26.2;34.96
64019;BME280;66942;52.138;5.216;2023-11-19T03:51:32;100674.0;;;26.4;34.49
64019;BME280;66942;52.138;5.216;2023-11-19T03:53:08;100671.0;;;26.42;34.39
64019;BME280;66942;52.138;5.216;2023-11-19T03:54:45;100680.0;;;26.22;34.6
64019;BME280;66942;52.138;5.216;2023-11-19T03:57:58;100676.0;;;26.42;34.4
64019;BME280;66942;52.138;5.216;2023-11-19T03:59:34;100685.0;;;26.51;34.15
64019;BME280;66942;52.138;5.216;2023-11-19T04:01:11;100685.0;;;26.25;34.53
64019;BME280;66942;52.138;5.216;2023-11-19T04:02:48;100683.0;;;26.18;34.69
64019;BME280;66942;52.138;5.216;2023-11-19T04:06:00;100683.0;;;26.2;34.51
64019;BME280;66942;52.138;5.216;2023-11-19T04:07:36;100682.0;;;26.38;34.28
64019;BME280;66942;52.138;5.216;2023-11-19T04:09:15;100688.0;;;26.41;34.21
64019;BME280;66942;52.138;5.216;2023-11-19T04:12:28;100697.0;;;26.37;34.18
64019;BME280;66942;52.138;5.216;2023-11-19T04:14:05;100702.0;;;26.2;34.21
64019;BME280;66942;52.138;5.216;2023-11-19T04:15:41;100697.0;;;26.27;34.22
64019;BME280;66942;52.138;5.216;2023-11-19T04:18:53;100709.0;;;26.38;34.12
64019;BME280;66942;52.138;5.216;2023-11-19T04:20:30;100712.0;;;26.25;34.18
64019;BME280;66942;52.138;5.216;2023-11-19T04:22:06;100712.0;;;26.09;34.33
64019;BME280;66942;52.138;5.216;2023-11-19T04:23:42;100714.0;;;26.18;34.33
64019;BME280;66942;52.138;5.216;2023-11-19T04:26:54;100714.0;;;26.14;34.4
64019;BME280;66942;52.138;5.216;2023-11-19T04:28:30;100707.0;;;26.15;34.35
64019;BME280;66942;52.138;5.216;2023-11-19T04:30:07;100703.0;;;26.34;34.04
64019;BME280;66942;52.138;5.216;2023-11-19T04:33:20;100699.0;;;26.08;34.37
64019;BME280;66942;52.138;5.216;2023-11-19T04:34:56;100695.0;;;26.19;34.21
64019;BME280;66942;52.138;5.216;2023-11-19T04:36:32;100693.0;;;26.13;34.25
64019;BME280;66942;52.138;5.216;2023-11-19T04:39:44;100689.0;;;26.1;34.35
64019;BME280;66942;52.138;5.216;2023-11-19T04:41:20;100692.0;;;26.01;34.49
64019;BME280;66942;52.138;5.216;2023-11-19T04:42:56;100698.0;;;25.96;34.39
64019;BME280;66942;52.138;5.216;2023-11-19T04:46:09;100705.0;;;25.91;34.61
64019;BME280;66942;52.138;5.216;2023-11-19T04:47:46;100706.0;;;26.21;34.14
64019;BME280;66942;52.138;5.216;2023-11-19T04:49:22;100705.0;;;25.92;34.44
64019;BME280;66942;52.138;5.216;2023-11-19T04:50:58;100698.0;;;26.08;34.29
64019;BME280;66942;52.138;5.216;2023-11-19T04:54:13;100691.0;;;25.72;34.87
64019;BME280;66942;52.138;5.216;2023-11-19T04:55:50;100694.0;;;25.68;34.75
64019;BME280;66942;52.138;5.216;2023-11-19T04:57:26;100684.0;;;25.86;34.5
64019;BME280;66942;52.138;5.216;2023-11-19T05:00:39;100686.0;;;26.08;34.19
64019;BME280;66942;52.138;5.216;2023-11-19T05:02:15;100687.0;;;26.12;34.03
64019;BME280;66942;52.138;5.216;2023-11-19T05:03:52;100692.0;;;26.17;34.0
64019;BME280;66942;52.138;5.216;2023-11-19T05:07:04;100699.0;;;25.94;34.25
64019;BME280;66942;52.138;5.216;2023-11-19T05:08:40;100697.0;;;25.98;34.14
64019;BME280;66942;52.138;5.216;2023-11-19T05:10:16;100700.0;;;26.0;34.0
64019;BME280;66942;52.138;5.216;2023-11-19T05:11:52;100701.0;;;25.98;33.89
64019;BME280;66942;52.138;5.216;2023-11-19T05:15:05;100705.0;;;25.95;34.1
64019;BME280;66942;52.138;5.216;2023-11-19T05:16:42;100708.0;;;25.88;34.03
64019;BME280;66942;52.138;5.216;2023-11-19T05:18:18;100705.0;;;25.38;34.85
64019;BME280;66942;52.138;5.216;2023-11-19T05:21:30;100701.0;;;25.6;34.49
64019;BME280;66942;52.138;5.216;2023-11-19T05:23:06;100694.0;;;26.0;33.76
64019;BME280;66942;52.138;5.216;2023-11-19T05:24:42;100694.0;;;25.97;33.81
64019;BME280;66942;52.138;5.216;2023-11-19T05:27:55;100694.0;;;25.88;33.92
64019;BME280;66942;52.138;5.216;2023-11-19T05:29:31;100701.0;;;25.82;33.93
64019;BME280;66942;52.138;5.216;2023-11-19T05:31:07;100701.0;;;25.85;33.71
64019;BME280;66942;52.138;5.216;2023-11-19T05:32:43;100705.0;;;25.57;34.17
64019;BME280;66942;52.138;5.216;2023-11-19T05:35:56;100708.0;;;25.78;33.86
64019;BME280;66942;52.138;5.216;2023-11-19T05:37:32;100707.0;;;25.57;34.19
64019;BME280;66942;52.138;5.216;2023-11-19T05:39:08;100709.0;;;25.61;33.86
64019;BME280;66942;52.138;5.216;2023-11-19T05:42:20;100702.0;;;25.65;33.96
64019;BME280;66942;52.138;5.216;2023-11-19T05:43:56;100705.0;;;25.67;33.89
64019;BME280;66942;52.138;5.216;2023-11-19T05:45:32;100699.0;;;25.18;34.39
64019;BME280;66942;52.138;5.216;2023-11-19T05:48:44;100714.0;;;25.83;33.62
64019;BME280;66942;52.138;5.216;2023-11-19T05:50:21;100721.0;;;25.77;33.67
64019;BME280;66942;52.138;5.216;2023-11-19T05:51:57;100722.0;;;25.71;33.81
64019;BME280;66942;52.138;5.216;2023-11-19T05:55:09;100716.0;;;25.72;33.72
64019;BME280;66942;52.138;5.216;2023-11-19T05:56:47;100717.0;;;25.8;33.74
64019;BME280;66942;52.138;5.216;2023-11-19T05:58:24;100713.0;;;25.71;33.92
64019;BME280;66942;52.138;5.216;2023-11-19T06:00:01;100707.0;;;25.52;34.11
64019;BME280;66942;52.138;5.216;2023-11-19T06:03:14;100701.0;;;25.86;33.67
64019;BME280;66942;52.138;5.216;2023-11-19T06:04:50;100703.0;;;25.67;34.01
64019;BME280;66942;52.138;5.216;2023-11-19T06:06:28;100708.0;;;25.54;34.05
64019;BME280;66942;52.138;5.216;2023-11-19T06:09:41;100708.0;;;25.55;34.12
64019;BME280;66942;52.138;5.216;2023-11-19T06:11:17;100705.0;;;25.7;33.79
64019;BME280;66942;52.138;5.216;2023-11-19T06:12:53;100706.0;;;25.74;33.82
64019;BME280;66942;52.138;5.216;2023-11-19T06:16:06;100707.0;;;25.63;33.92
64019;BME280;66942;52.138;5.216;2023-11-19T06:17:43;100712.0;;;25.71;33.74
64019;BME280;66942;52.138;5.216;2023-11-19T06:19:19;100702.0;;;25.65;33.85
64019;BME280;66942;52.138;5.216;2023-11-19T06:20:55;100706.0;;;25.68;33.71
64019;BME280;66942;52.138;5.216;2023-11-19T06:24:08;100705.0;;;25.54;34.1
64019;BME280;66942;52.138;5.216;2023-11-19T06:25:44;100707.0;;;25.76;33.61
64019;BME280;66942;52.138;5.216;2023-11-19T06:27:21;100705.0;;;25.51;34.11
64019;BME280;66942;52.138;5.216;2023-11-19T06:30:33;100708.0;;;25.85;33.58
64019;BME280;66942;52.138;5.216;2023-11-19T06:32:09;100705.0;;;25.34;34.24
64019;BME280;66942;52.138;5.216;2023-11-19T06:33:46;100714.0;;;25.67;33.82
64019;BME280;66942;52.138;5.216;2023-11-19T06:36:58;100722.0;;;25.83;33.49
64019;BME280;66942;52.138;5.216;2023-11-19T06:38:34;100722.0;;;25.63;33.79
64019;BME280;66942;52.138;5.216;2023-11-19T06:40:11;100723.0;;;25.58;33.72
64019;BME280;66942;52.138;5.216;2023-11-19T06:41:47;100723.0;;;25.58;33.85
64019;BME280;66942;52.138;5.216;2023-11-19T06:45:01;100725.0;;;25.7;33.65
64019;BME280;66942;52.138;5.216;2023-11-19T06:46:37;100722.0;;;25.7;33.5
64019;BME280;66942;52.138;5.216;2023-11-19T06:48:14;100720.0;;;25.61;33.78
64019;BME280;66942;52.138;5.216;2023-11-19T06:51:26;100723.0;;;25.15;34.33
64019;BME280;66942;52.138;5.216;2023-11-19T06:53:03;100725.0;;;25.64;33.67
64019;BME280;66942;52.138;5.216;2023-11-19T06:54:39;100716.0;;;25.47;33.92
64019;BME280;66942;52.138;5.216;2023-11-19T06:57:56;100722.0;;;25.57;33.65
64019;BME280;66942;52.138;5.216;2023-11-19T06:59:35;100727.0;;;25.48;33.92
64019;BME280;66942;52.138;5.216;2023-11-19T07:01:13;100731.0;;;25.65;33.6
64019;BME280;66942;52.138;5.216;2023-11-19T07:02:49;100730.0;;;25.55;33.67
64019;BME280;66942;52.138;5.216;2023-11-19T07:06:02;100737.0;;;25.83;33.33
64019;BME280;66942;52.138;5.216;2023-11-19T07:07:39;100735.0;;;25.27;33.76
64019;BME280;66942;52.138;5.216;2023-11-19T07:09:15;100737.0;;;25.64;33.39
64019;BME280;66942;52.138;5.216;2023-11-19T07:12:28;100741.0;;;25.75;33.35
64019;BME280;66942;52.138;5.216;2023-11-19T07:14:05;100748.0;;;25.58;33.6
64019;BME280;66942;52.138;5.216;2023-11-19T07:15:42;100741.0;;;25.62;33.51
64019;BME280;66942;52.138;5.216;2023-11-19T07:17:18;100746.0;;;25.43;33.92
64019;BME280;66942;52.138;5.216;2023-11-19T07:20:32;100741.0;;;25.73;33.35
64019;BME280;66942;52.138;5.216;2023-11-19T07:22:08;100753.0;;;25.61;33.6
64019;BME280;66942;52.138;5.216;2023-11-19T07:23:44;100747.0;;;25.59;33.57
64019;BME280;66942;52.138;5.216;2023-11-19T07:26:57;100753.0;;;25.54;33.71
64019;BME280;66942;52.138;5.216;2023-11-19T07:28:33;100753.0;;;25.62;33.35
64019;BME280;66942;52.138;5.216;2023-11-19T07:30:10;100753.0;;;25.64;33.57
64019;BME280;66942;52.138;5.216;2023-11-19T07:33:24;100759.0;;;25.67;33.53
64019;BME280;66942;52.138;5.216;2023-11-19T07:35:00;100759.0;;;25.46;33.78
64019;BME280;66942;52.138;5.216;2023-11-19T07:36:36;100755.0;;;25.53;33.67
64019;BME280;66942;52.138;5.216;2023-11-19T07:38:13;100751.0;;;25.56;33.67
64019;BME280;66942;52.138;5.216;2023-11-19T07:41:25;100753.0;;;25.84;33.17
64019;BME280;66942;52.138;5.216;2023-11-19T07:43:01;100759.0;;;25.73;33.49
64019;BME280;66942;52.138;5.216;2023-11-19T07:44:37;100756.0;;;25.89;33.21
64019;BME280;66942;52.138;5.216;2023-11-19T07:47:50;100758.0;;;25.8;33.39
64019;BME280;66942;52.138;5.216;2023-11-19T07:49:27;100761.0;;;25.76;33.46
64019;BME280;66942;52.138;5.216;2023-11-19T07:51:03;100762.0;;;25.92;33.26
64019;BME280;66942;52.138;5.216;2023-11-19T07:54:15;100763.0;;;25.92;33.19
64019;BME280;66942;52.138;5.216;2023-11-19T07:55:52;100761.0;;;25.88;33.39
64019;BME280;66942;52.138;5.216;2023-11-19T07:57:28;100765.0;;;25.73;33.58
64019;BME280;66942;52.138;5.216;2023-11-19T08:00:41;100765.0;;;25.95;33.39
64019;BME280;66942;52.138;5.216;2023-11-19T08:02:17;100764.0;;;26.01;33.28
64019;BME280;66942;52.138;5.216;2023-11-19T08:03:53;100766.0;;;26.2;33.03
64019;BME280;66942;52.138;5.216;2023-11-19T08:05:31;100761.0;;;25.99;33.39
64019;BME280;66942;52.138;5.216;2023-11-19T08:08:43;100755.0;;;25.84;33.65
64019;BME280;66942;52.138;5.216;2023-11-19T08:10:20;100763.0;;;25.99;33.57
64019;BME280;66942;52.138;5.216;2023-11-19T08:11:57;100764.0;;;26.27;33.17
64019;BME280;66942;52.138;5.216;2023-11-19T08:15:11;100766.0;;;26.4;33.21
64019;BME280;66942;52.138;5.216;2023-11-19T08:16:47;100755.0;;;26.15;33.71
64019;BME280;66942;52.138;5.216;2023-11-19T08:18:23;100755.0;;;25.73;34.12
64019;BME280;66942;52.138;5.216;2023-11-19T08:21:35;100753.0;;;25.79;34.15
64019;BME280;66942;52.138;5.216;2023-11-19T08:23:11;100762.0;;;26.13;33.74
64019;BME280;66942;52.138;5.216;2023-11-19T08:24:48;100768.0;;;25.58;34.5
64019;BME280;66942;52.138;5.216;2023-11-19T08:26:25;100764.0;;;26.23;33.65
64019;BME280;66942;52.138;5.216;2023-11-19T08:29:37;100766.0;;;26.23;33.67
64019;BME280;66942;52.138;5.216;2023-11-19T08:31:13;100770.0;;;26.31;33.56
64019;BME280;66942;52.138;5.216;2023-11-19T08:32:49;100775.0;;;26.48;33.35
64019;BME280;66942;52.138;5.216;2023-11-19T08:36:03;100771.0;;;26.5;33.44
64019;BME280;66942;52.138;5.216;2023-11-19T08:37:39;100776.0;;;25.64;34.37
64019;BME280;66942;52.138;5.216;2023-11-19T08:39:15;100775.0;;;25.88;34.28
64019;BME280;66942;52.138;5.216;2023-11-19T08:42:28;100772.0;;;26.38;33.68
64019;BME280;66942;52.138;5.216;2023-11-19T08:44:04;100780.0;;;26.29;33.78
64019;BME280;66942;52.138;5.216;2023-11-19T08:45:40;100774.0;;;25.77;34.24
64019;BME280;66942;52.138;5.216;2023-11-19T08:47:17;100780.0;;;26.42;33.55
64019;BME280;66942;52.138;5.216;2023-11-19T08:50:31;100787.0;;;26.62;33.37
64019;BME280;66942;52.138;5.216;2023-11-19T08:52:08;100783.0;;;26.53;33.61
64019;BME280;66942;52.138;5.216;2023-11-19T08:53:45;100782.0;;;25.75;34.28
64019;BME280;66942;52.138;5.216;2023-11-19T08:56:57;100777.0;;;26.4;33.44
64019;BME280;66942;52.138;5.216;2023-11-19T08:58:33;100786.0;;;26.44;33.31
64019;BME280;66942;52.138;5.216;2023-11-19T09:00:11;100784.0;;;26.72;33.06
64019;BME280;66942;52.138;5.216;2023-11-19T09:03:25;100782.0;;;26.19;33.57
64019;BME280;66942;52.138;5.216;2023-11-19T09:05:01;100784.0;;;26.83;32.85
64019;BME280;66942;52.138;5.216;2023-11-19T09:06:38;100781.0;;;26.52;33.21
64019;BME280;66942;52.138;5.216;2023-11-19T09:08:15;100775.0;;;27.0;32.67
64019;BME280;66942;52.138;5.216;2023-11-19T09:11:28;100777.0;;;26.54;33.24
64019;BME280;66942;52.138;5.216;2023-11-19T09:13:05;100777.0;;;26.84;32.83
64019;BME280;66942;52.138;5.216;2023-11-19T09:14:41;100778.0;;;26.46;33.4
64019;BME280;66942;52.138;5.216;2023-11-19T09:17:54;100773.0;;;26.78;32.78
64019;BME280;66942;52.138;5.216;2023-11-19T09:19:32;100776.0;;;26.48;33.03
64019;BME280;66942;52.138;5.216;2023-11-19T09:21:10;100773.0;;;27.08;32.53
64019;BME280;66942;52.138;5.216;2023-11-19T09:24:22;100777.0;;;26.8;32.86
64019;BME280;66942;52.138;5.216;2023-11-19T09:25:58;100776.0;;;26.87;32.78
64019;BME280;66942;52.138;5.216;2023-11-19T09:27:34;100770.0;;;27.08;32.67
64019;BME280;66942;52.138;5.216;2023-11-19T09:29:12;100780.0;;;26.76;32.8
64019;BME280;66942;52.138;5.216;2023-11-19T09:32:26;100777.0;;;26.54;32.97
64019;BME280;66942;52.138;5.216;2023-11-19T09:34:03;100780.0;;;26.74;32.82
64019;BME280;66942;52.138;5.216;2023-11-19T09:35:39;100771.0;;;27.09;32.53
64019;BME280;66942;52.138;5.216;2023-11-19T09:38:51;100771.0;;;27.07;32.35
64019;BME280;66942;52.138;5.216;2023-11-19T09:40:27;100770.0;;;27.15;32.33
64019;BME280;66942;52.138;5.216;2023-11-19T09:42:05;100780.0;;;26.87;32.81
64019;BME280;66942;52.138;5.216;2023-11-19T09:45:20;100768.0;;;27.23;32.33
64019;BME280;66942;52.138;5.216;2023-11-19T09:46:58;100770.0;;;26.81;33.06
64019;BME280;66942;52.138;5.216;2023-11-19T09:48:36;100767.0;;;27.29;32.33
64019;BME280;66942;52.138;5.216;2023-11-19T09:50:16;100767.0;;;27.1;32.53
64019;BME280;66942;52.138;5.216;2023-11-19T09:53:30;100760.0;;;26.81;32.99
64019;BME280;66942;52.138;5.216;2023-11-19T09:55:08;100763.0;;;26.8;32.78
64019;BME280;66942;52.138;5.216;2023-11-19T09:56:44;100767.0;;;27.2;32.51
64019;BME280;66942;52.138;5.216;2023-11-19T09:58:22;100760.0;;;27.44;32.18
64019;BME280;66942;52.138;5.216;2023-11-19T10:01:37;100764.0;;;27.51;32.0
64019;BME280;66942;52.138;5.216;2023-11-19T10:03:13;100765.0;;;27.37;31.85
64019;BME280;66942;52.138;5.216;2023-11-19T10:04:50;100767.0;;;27.17;32.37
64019;BME280;66942;52.138;5.216;2023-11-19T10:08:05;100763.0;;;27.34;31.98
64019;BME280;66942;52.138;5.216;2023-11-19T10:09:42;100758.0;;;27.08;32.17
64019;BME280;66942;52.138;5.216;2023-11-19T10:11:18;100764.0;;;27.0;32.17
64019;BME280;66942;52.138;5.216;2023-11-19T10:14:31;100752.0;;;27.58;31.76
64019;BME280;66942;52.138;5.216;2023-11-19T10:16:10;100750.0;;;27.28;32.39
64019;BME280;66942;52.138;5.216;2023-11-19T10:17:48;100744.0;;;27.43;32.4
64019;BME280;66942;52.138;5.216;2023-11-19T10:19:24;100742.0;;;27.53;31.99
64019;BME280;66942;52.138;5.216;2023-11-19T10:22:36;100737.0;;;27.19;32.14
64019;BME280;66942;52.138;5.216;2023-11-19T10:24:14;100741.0;;;27.76;31.64
64019;BME280;66942;52.138;5.216;2023-11-19T10:25:52;100727.0;;;27.98;31.34
64019;BME280;66942;52.138;5.216;2023-11-19T10:29:06;100738.0;;;27.8;31.73
64019;BME280;66942;52.138;5.216;2023-11-19T10:30:42;100739.0;;;28.41;30.91
64019;BME280;66942;52.138;5.216;2023-11-19T10:32:18;100732.0;;;28.44;31.12
64019;BME280;66942;52.138;5.216;2023-11-19T10:35:32;100731.0;;;28.39;31.11
64019;BME280;66942;52.138;5.216;2023-11-19T10:37:09;100731.0;;;27.8;31.25
64019;BME280;66942;52.138;5.216;2023-11-19T10:39:03;100731.0;;;27.94;31.02
64019;BME280;66942;52.138;5.216;2023-11-19T10:40:39;100727.0;;;28.48;30.36
64019;BME280;66942;52.138;5.216;2023-11-19T10:43:52;100726.0;;;28.33;30.88
64019;BME280;66942;52.138;5.216;2023-11-19T10:45:29;100730.0;;;28.1;30.87
64019;BME280;66942;52.138;5.216;2023-11-19T10:47:05;100720.0;;;27.92;30.67
64019;BME280;66942;52.138;5.216;2023-11-19T10:48:44;100720.0;;;28.44;30.54
64019;BME280;66942;52.138;5.216;2023-11-19T10:51:56;100725.0;;;28.9;29.94
64019;BME280;66942;52.138;5.216;2023-11-19T10:53:36;100725.0;;;28.86;30.17
64019;BME280;66942;52.138;5.216;2023-11-19T10:55:15;100723.0;;;28.77;29.85
64019;BME280;66942;52.138;5.216;2023-11-19T10:58:36;100722.0;;;28.61;30.08
64019;BME280;66942;52.138;5.216;2023-11-19T11:00:16;100730.0;;;29.69;29.09
64019;BME280;66942;52.138;5.216;2023-11-19T11:01:56;100732.0;;;29.65;29.01
64019;BME280;66942;52.138;5.216;2023-11-19T11:03:39;100735.0;;;29.74;28.81
64019;BME280;66942;52.138;5.216;2023-11-19T11:06:54;100736.0;;;29.79;28.38